Time,TemperatureF,DewpointF,PressureIn,WindDirection,WindDirectionDegrees,WindSpeedMPH,WindSpeedGustMPH,Humidity,HourlyPrecipIn,Conditions,Clouds,dailyrainin,SoftwareType,DateUTC
2013-06-24 00:00:00,65.4,64.5,29.64,SW,227,0.0,0.0,97,0.00,,,0.76,Wunderground v.1.15,2013-06-24 04:00:00,
2013-06-24 00:05:00,65.5,64.6,29.64,SW,228,1.0,1.0,97,0.00,,,0.00,Wunderground v.1.15,2013-06-24 04:05:00,
2013-06-24 00:10:00,65.4,64.5,29.64,SW,227,1.0,1.0,97,0.00,,,0.00,Wunderground v.1.15,2013-06-24 04:10:00,
2013-06-24 00:15:00,65.5,64.6,29.64,SSW,205,1.0,1.0,97,0.00,,,0.00,Wunderground v.1.15,2013-06-24 04:15:00,
2013-06-24 00:20:00,65.5,64.6,29.64,SW,223,1.0,3.0,97,0.00,,,0.00,Wunderground v.1.15,2013-06-24 04:20:00,
2013-06-24 00:25:00,65.5,64.6,29.64,SSW,202,2.0,3.0,97,0.00,,,0.00,Wunderground v.1.15,2013-06-24 04:25:00,
2013-06-24 00:35:00,65.3,64.4,29.64,SSW,204,1.0,2.0,97,0.00,,,0.00,Wunderground v.1.15,2013-06-24 04:35:00,
2013-06-24 00:40:00,64.5,63.3,29.64,SSW,204,1.0,1.0,96,0.00,,,0.00,Wunderground v.1.15,2013-06-24 04:40:00,
2013-06-24 00:50:00,64.1,63.2,29.64,SSW,204,1.0,1.0,97,0.00,,,0.00,Wunderground v.1.15,2013-06-24 04:50:00,
2013-06-24 01:00:00,64.9,64.3,29.64,SSW,204,1.0,1.0,98,0.00,,,0.00,Wunderground v.1.15,2013-06-24 05:00:00,
2013-06-24 01:10:00,64.5,63.6,29.64,SSW,204,0.0,1.0,97,0.00,,,0.00,Wunderground v.1.15,2013-06-24 05:10:00,
2013-06-24 01:20:00,64.5,63.6,29.63,SSW,200,2.0,2.0,97,0.00,,,0.00,Wunderground v.1.15,2013-06-24 05:20:00,
2013-06-24 01:25:00,64.7,63.8,29.63,SSW,192,3.0,3.0,97,0.00,,,0.00,Wunderground v.1.15,2013-06-24 05:25:00,
2013-06-24 01:30:00,64.8,64.2,29.63,SSW,192,1.0,1.0,98,0.00,,,0.00,Wunderground v.1.15,2013-06-24 05:30:00,
2013-06-24 01:45:00,63.6,62.7,29.63,NNE,30,0.0,0.0,97,0.00,,,0.00,Wunderground v.1.15,2013-06-24 05:45:00,
2013-06-24 01:50:00,63.9,63.0,29.63,SW,221,1.0,1.0,97,0.00,,,0.00,Wunderground v.1.15,2013-06-24 05:50:00,
2013-06-24 01:55:00,64.1,63.5,29.63,SSW,192,1.0,1.0,98,0.00,,,0.00,Wunderground v.1.15,2013-06-24 05:55:00,
2013-06-24 02:00:00,64.4,63.8,29.63,South,186,0.0,0.0,98,0.00,,,0.00,Wunderground v.1.15,2013-06-24 06:00:00,
2013-06-24 02:10:00,64.5,63.9,29.63,South,186,0.0,0.0,98,0.00,,,0.00,Wunderground v.1.15,2013-06-24 06:10:00,
2013-06-24 02:20:00,64.6,63.7,29.62,South,187,1.0,2.0,97,0.00,,,0.00,Wunderground v.1.15,2013-06-24 06:20:00,
2013-06-24 02:30:00,64.7,64.1,29.62,South,187,2.0,2.0,98,0.00,,,0.00,Wunderground v.1.15,2013-06-24 06:30:00,
2013-06-24 02:40:00,64.1,63.2,29.62,South,187,1.0,3.0,97,0.00,,,0.00,Wunderground v.1.15,2013-06-24 06:40:00,
2013-06-24 02:50:00,64.0,63.1,29.62,SW,215,2.0,2.0,97,0.00,,,0.00,Wunderground v.1.15,2013-06-24 06:50:00,
2013-06-24 03:00:00,63.5,62.6,29.61,SW,215,0.0,0.0,97,0.00,,,0.00,Wunderground v.1.15,2013-06-24 07:00:00,
2013-06-24 03:10:00,63.0,62.1,29.61,SW,215,0.0,0.0,97,0.00,,,0.00,Wunderground v.1.15,2013-06-24 07:10:00,
2013-06-24 03:20:00,62.7,61.8,29.61,SW,215,0.0,0.0,97,0.00,,,0.00,Wunderground v.1.15,2013-06-24 07:20:00,
2013-06-24 03:30:00,62.8,62.2,29.61,SW,215,0.0,0.0,98,0.00,,,0.00,Wunderground v.1.15,2013-06-24 07:30:00,
2013-06-24 03:40:00,62.6,62.0,29.61,SW,215,0.0,0.0,98,0.00,,,0.00,Wunderground v.1.15,2013-06-24 07:40:00,
2013-06-24 03:45:00,62.5,61.6,29.61,SW,215,0.0,0.0,97,0.00,,,0.00,Wunderground v.1.15,2013-06-24 07:45:00,
2013-06-24 04:00:00,62.5,61.9,29.60,SW,215,0.0,0.0,98,0.00,,,0.00,Wunderground v.1.15,2013-06-24 08:00:00,
2013-06-24 04:10:00,62.7,62.1,29.60,SW,215,0.0,0.0,98,0.00,,,0.00,Wunderground v.1.15,2013-06-24 08:10:00,
2013-06-24 04:20:00,62.5,61.6,29.61,SW,215,0.0,0.0,97,0.00,,,0.00,Wunderground v.1.15,2013-06-24 08:20:00,
2013-06-24 04:30:00,62.4,61.8,29.60,SW,215,0.0,0.0,98,0.00,,,0.00,Wunderground v.1.15,2013-06-24 08:30:00,
2013-06-24 04:40:00,62.4,61.8,29.60,SW,215,0.0,0.0,98,0.00,,,0.00,Wunderground v.1.15,2013-06-24 08:40:00,
2013-06-24 04:55:00,62.3,61.7,29.60,SW,215,0.0,0.0,98,0.00,,,0.00,Wunderground v.1.15,2013-06-24 08:55:00,
2013-06-24 05:00:00,62.1,61.5,29.60,SW,215,0.0,0.0,98,0.00,,,0.00,Wunderground v.1.15,2013-06-24 09:00:00,
2013-06-24 05:10:00,62.4,61.8,29.60,SW,215,0.0,3.0,98,0.00,,,0.00,Wunderground v.1.15,2013-06-24 09:10:00,
2013-06-24 05:25:00,61.9,61.3,29.60,NNE,30,1.0,2.0,98,0.00,,,0.00,Wunderground v.1.15,2013-06-24 09:25:00,
2013-06-24 05:35:00,61.9,61.3,29.61,NNE,30,0.0,0.0,98,0.00,,,0.00,Wunderground v.1.15,2013-06-24 09:35:00,
2013-06-24 05:40:00,62.2,61.6,29.61,NNE,29,0.0,1.0,98,0.00,,,0.00,Wunderground v.1.15,2013-06-24 09:40:00,
2013-06-24 05:50:00,62.2,61.6,29.61,WNW,295,1.0,1.0,98,0.00,,,0.00,Wunderground v.1.15,2013-06-24 09:50:00,
2013-06-24 06:00:00,63.2,62.6,29.61,WNW,300,0.0,0.0,98,0.00,,,0.00,Wunderground v.1.15,2013-06-24 10:00:00,
2013-06-24 06:10:00,62.7,62.1,29.61,NNE,22,0.0,0.0,98,0.00,,,0.00,Wunderground v.1.15,2013-06-24 10:10:00,
2013-06-24 06:25:00,63.6,63.0,29.61,SSW,196,1.0,2.0,98,0.00,,,0.00,Wunderground v.1.15,2013-06-24 10:25:00,
2013-06-24 06:30:00,63.4,62.8,29.62,WSW,257,1.0,1.0,98,0.00,,,0.00,Wunderground v.1.15,2013-06-24 10:30:00,
2013-06-24 06:45:00,63.7,63.1,29.62,SSW,203,2.0,3.0,98,0.00,,,0.00,Wunderground v.1.15,2013-06-24 10:45:00,
2013-06-24 06:50:00,64.2,63.6,29.62,SSW,203,1.0,1.0,98,0.00,,,0.00,Wunderground v.1.15,2013-06-24 10:50:00,
2013-06-24 07:00:00,64.9,64.3,29.62,SSW,203,0.0,0.0,98,0.00,,,0.00,Wunderground v.1.15,2013-06-24 11:00:00,
2013-06-24 07:10:00,65.4,64.8,29.62,SW,214,0.0,1.0,98,0.00,,,0.00,Wunderground v.1.15,2013-06-24 11:10:00,
2013-06-24 07:20:00,66.5,65.9,29.62,South,180,1.0,4.0,98,0.00,,,0.00,Wunderground v.1.15,2013-06-24 11:20:00,
2013-06-24 07:25:00,66.5,65.9,29.62,South,171,1.0,4.0,98,0.00,,,0.00,Wunderground v.1.15,2013-06-24 11:25:00,
2013-06-24 07:40:00,67.4,66.8,29.62,South,169,0.0,0.0,98,0.00,,,0.00,Wunderground v.1.15,2013-06-24 11:40:00,
2013-06-24 07:55:00,68.8,67.9,29.62,WNW,298,2.0,2.0,97,0.00,,,0.00,Wunderground v.1.15,2013-06-24 11:55:00,
2013-06-24 08:05:00,69.8,68.3,29.62,West,277,1.0,2.0,95,0.00,,,0.00,Wunderground v.1.15,2013-06-24 12:05:00,
2013-06-24 08:10:00,70.7,68.6,29.62,West,260,2.0,2.0,93,0.00,,,0.00,Wunderground v.1.15,2013-06-24 12:10:00,
2013-06-24 08:30:00,72.6,68.8,29.62,North,360,2.0,2.0,88,0.00,,,0.01,Wunderground v.1.15,2013-06-24 12:30:00,
2013-06-24 08:45:00,73.5,68.0,29.62,SW,221,4.0,7.0,83,0.00,,,0.01,Wunderground v.1.15,2013-06-24 12:45:00,
2013-06-24 08:50:00,73.7,68.2,29.62,West,266,5.0,5.0,83,0.00,,,0.01,Wunderground v.1.15,2013-06-24 12:50:00,
2013-06-24 08:55:00,73.9,68.1,29.62,WSW,258,4.0,5.0,82,0.00,,,0.01,Wunderground v.1.15,2013-06-24 12:55:00,
2013-06-24 09:05:00,73.8,68.0,29.63,WNW,300,3.0,3.0,82,0.00,,,0.01,Wunderground v.1.15,2013-06-24 13:05:00,
2013-06-24 09:15:00,73.4,67.6,29.63,North,355,4.0,7.0,82,0.00,,,0.01,Wunderground v.1.15,2013-06-24 13:15:00,
2013-06-24 09:20:00,73.5,68.0,29.63,South,189,3.0,3.0,83,0.00,,,0.01,Wunderground v.1.15,2013-06-24 13:20:00,
2013-06-24 09:30:00,74.0,67.4,29.63,NNW,345,4.0,5.0,80,0.00,,,0.01,Wunderground v.1.15,2013-06-24 13:30:00,
2013-06-24 09:35:00,74.2,68.0,29.63,WSW,240,5.0,5.0,81,0.00,,,0.01,Wunderground v.1.15,2013-06-24 13:35:00,
2013-06-24 09:45:00,74.7,67.8,29.62,West,268,4.0,6.0,79,0.00,,,0.01,Wunderground v.1.15,2013-06-24 13:45:00,
2013-06-24 09:55:00,74.9,67.9,29.62,WNW,292,6.0,10.0,79,0.00,,,0.01,Wunderground v.1.15,2013-06-24 13:55:00,
2013-06-24 10:00:00,75.4,68.4,29.62,West,275,7.0,7.0,79,0.00,,,0.01,Wunderground v.1.15,2013-06-24 14:00:00,
2013-06-24 10:20:00,76.9,68.0,29.62,NW,309,7.0,7.0,74,0.00,,,0.01,Wunderground v.1.15,2013-06-24 14:20:00,
2013-06-24 10:25:00,77.1,68.6,29.62,West,281,6.0,7.0,75,0.00,,,0.01,Wunderground v.1.15,2013-06-24 14:25:00,
2013-06-24 10:30:00,77.4,68.1,29.62,West,278,5.0,5.0,73,0.00,,,0.01,Wunderground v.1.15,2013-06-24 14:30:00,
2013-06-24 10:35:00,77.4,69.2,29.62,WNW,283,5.0,9.0,76,0.00,,,0.01,Wunderground v.1.15,2013-06-24 14:35:00,
2013-06-24 10:40:00,77.3,69.1,29.62,WNW,295,6.0,9.0,76,0.00,,,0.01,Wunderground v.1.15,2013-06-24 14:40:00,
2013-06-24 10:45:00,77.6,67.9,29.62,WNW,300,6.0,9.0,72,0.00,,,0.01,Wunderground v.1.15,2013-06-24 14:45:00,
2013-06-24 10:50:00,77.7,69.1,29.62,West,271,6.0,6.0,75,0.00,,,0.01,Wunderground v.1.15,2013-06-24 14:50:00,
2013-06-24 10:55:00,77.8,69.2,29.61,West,280,5.0,6.0,75,0.00,,,0.01,Wunderground v.1.15,2013-06-24 14:55:00,
2013-06-24 11:00:00,77.7,68.0,29.61,NW,306,6.0,6.0,72,0.00,,,0.01,Wunderground v.1.15,2013-06-24 15:00:00,
2013-06-24 11:05:00,77.9,68.5,29.61,West,277,7.0,9.0,73,0.00,,,0.01,Wunderground v.1.15,2013-06-24 15:05:00,
2013-06-24 11:15:00,78.2,68.8,29.61,West,260,6.0,8.0,73,0.00,,,0.01,Wunderground v.1.15,2013-06-24 15:15:00,
2013-06-24 11:20:00,78.4,68.2,29.61,West,278,6.0,7.0,71,0.00,,,0.01,Wunderground v.1.15,2013-06-24 15:20:00,
2013-06-24 11:30:00,78.8,68.6,29.61,SW,229,6.0,6.0,71,0.00,,,0.01,Wunderground v.1.15,2013-06-24 15:30:00,
2013-06-24 11:35:00,79.2,68.1,29.61,WNW,298,5.0,6.0,69,0.00,,,0.01,Wunderground v.1.15,2013-06-24 15:35:00,
2013-06-24 11:45:00,80.3,69.6,29.61,West,270,3.0,6.0,70,0.00,,,0.01,Wunderground v.1.15,2013-06-24 15:45:00,
2013-06-24 11:50:00,80.2,67.8,29.61,WSW,254,5.0,5.0,66,0.00,,,0.01,Wunderground v.1.15,2013-06-24 15:50:00,
2013-06-24 12:00:00,80.1,68.2,29.61,SW,226,6.0,6.0,67,0.00,,,0.01,Wunderground v.1.15,2013-06-24 16:00:00,
2013-06-24 12:10:00,80.9,69.3,29.61,SW,227,3.0,7.0,68,0.00,,,0.01,Wunderground v.1.15,2013-06-24 16:10:00,
2013-06-24 12:20:00,81.6,70.4,29.60,WNW,301,4.0,6.0,69,0.00,,,0.01,Wunderground v.1.15,2013-06-24 16:20:00,
2013-06-24 12:30:00,81.9,69.4,29.60,WNW,298,4.0,4.0,66,0.00,,,0.01,Wunderground v.1.15,2013-06-24 16:30:00,
2013-06-24 12:35:00,82.1,69.2,29.61,SSE,159,3.0,4.0,65,0.00,,,0.01,Wunderground v.1.15,2013-06-24 16:35:00,
2013-06-24 12:40:00,82.1,69.2,29.61,West,268,3.0,5.0,65,0.00,,,0.01,Wunderground v.1.15,2013-06-24 16:40:00,
2013-06-24 12:45:00,82.0,68.6,29.61,WNW,303,3.0,5.0,64,0.00,,,0.01,Wunderground v.1.15,2013-06-24 16:45:00,
2013-06-24 12:55:00,82.0,71.2,29.60,WSW,258,3.0,10.0,70,0.00,,,0.01,Wunderground v.1.15,2013-06-24 16:55:00,
2013-06-24 13:05:00,81.9,69.9,29.60,NW,316,5.0,6.0,67,0.00,,,0.01,Wunderground v.1.15,2013-06-24 17:05:00,
2013-06-24 13:15:00,82.7,68.4,29.60,West,275,3.0,8.0,62,0.00,,,0.01,Wunderground v.1.15,2013-06-24 17:15:00,
2013-06-24 13:20:00,82.6,70.1,29.60,West,262,5.0,5.0,66,0.00,,,0.01,Wunderground v.1.15,2013-06-24 17:20:00,
2013-06-24 13:30:00,82.7,68.8,29.60,NW,305,4.0,4.0,63,0.00,,,0.01,Wunderground v.1.15,2013-06-24 17:30:00,
2013-06-24 13:35:00,82.8,68.0,29.60,WNW,284,5.0,5.0,61,0.00,,,0.01,Wunderground v.1.15,2013-06-24 17:35:00,
2013-06-24 13:45:00,83.5,67.7,29.59,West,273,3.0,7.0,59,0.00,,,0.01,Wunderground v.1.15,2013-06-24 17:45:00,
2013-06-24 13:55:00,83.5,66.2,29.59,West,270,4.0,7.0,56,0.00,,,0.01,Wunderground v.1.15,2013-06-24 17:55:00,
2013-06-24 14:00:00,83.8,68.4,29.59,WNW,298,4.0,4.0,60,0.00,,,0.01,Wunderground v.1.15,2013-06-24 18:00:00,
2013-06-24 14:10:00,84.2,70.7,29.58,South,190,4.0,4.0,64,0.00,,,0.01,Wunderground v.1.15,2013-06-24 18:10:00,
2013-06-24 14:15:00,84.5,68.1,29.58,West,269,3.0,5.0,58,0.00,,,0.01,Wunderground v.1.15,2013-06-24 18:15:00,
2013-06-24 14:25:00,84.6,68.2,29.58,West,272,4.0,5.0,58,0.00,,,0.01,Wunderground v.1.15,2013-06-24 18:25:00,
2013-06-24 14:30:00,84.5,68.6,29.58,NW,309,3.0,3.0,59,0.00,,,0.01,Wunderground v.1.15,2013-06-24 18:30:00,
2013-06-24 14:45:00,84.5,68.6,29.57,West,263,5.0,5.0,59,0.00,,,0.01,Wunderground v.1.15,2013-06-24 18:45:00,
2013-06-24 14:50:00,85.1,70.1,29.57,West,266,4.0,4.0,61,0.00,,,0.01,Wunderground v.1.15,2013-06-24 18:50:00,
2013-06-24 15:00:00,84.3,68.9,29.57,NW,319,4.0,7.0,60,0.00,,,0.01,Wunderground v.1.15,2013-06-24 19:00:00,
2013-06-24 15:15:00,81.6,68.2,29.57,West,279,5.0,5.0,64,0.00,,,0.01,Wunderground v.1.15,2013-06-24 19:15:00,
2013-06-24 15:25:00,80.9,69.3,29.57,West,273,3.0,4.0,68,0.00,,,0.01,Wunderground v.1.15,2013-06-24 19:25:00,
2013-06-24 15:30:00,80.5,69.0,29.57,WNW,284,3.0,3.0,68,0.00,,,0.01,Wunderground v.1.15,2013-06-24 19:30:00,
2013-06-24 15:40:00,79.9,68.4,29.56,WSW,252,3.0,3.0,68,0.00,,,0.01,Wunderground v.1.15,2013-06-24 19:40:00,
2013-06-24 15:50:00,77.7,66.7,29.58,NW,311,7.0,7.0,69,0.00,,,0.01,Wunderground v.1.15,2013-06-24 19:50:00,
2013-06-24 15:55:00,75.8,66.5,29.57,West,273,9.0,9.0,73,0.00,,,0.01,Wunderground v.1.15,2013-06-24 19:55:00,
2013-06-24 16:00:00,74.4,66.0,29.57,WNW,301,8.0,9.0,75,0.00,,,0.01,Wunderground v.1.15,2013-06-24 20:00:00,
2013-06-24 16:10:00,72.3,65.4,29.57,WNW,285,7.0,7.0,79,0.00,,,0.01,Wunderground v.1.15,2013-06-24 20:10:00,
2013-06-24 16:20:00,71.2,65.4,29.57,WNW,286,4.0,4.0,82,0.00,,,0.02,Wunderground v.1.15,2013-06-24 20:20:00,
2013-06-24 16:25:00,71.0,65.6,29.57,SSW,207,1.0,4.0,83,0.00,,,0.02,Wunderground v.1.15,2013-06-24 20:25:00,
2013-06-24 16:30:00,70.8,65.7,29.57,SSW,208,0.0,0.0,84,0.00,,,0.02,Wunderground v.1.15,2013-06-24 20:30:00,
2013-06-24 16:35:00,70.5,66.1,29.56,SE,130,1.0,1.0,86,0.00,,,0.02,Wunderground v.1.15,2013-06-24 20:35:00,
2013-06-24 16:45:00,69.8,66.1,29.56,South,178,1.0,1.0,88,0.00,,,0.02,Wunderground v.1.15,2013-06-24 20:45:00,
2013-06-24 16:50:00,69.5,66.1,29.56,South,171,0.0,0.0,89,0.00,,,0.02,Wunderground v.1.15,2013-06-24 20:50:00,
2013-06-24 17:05:00,69.1,65.4,29.56,South,188,1.0,3.0,88,0.00,,,0.02,Wunderground v.1.15,2013-06-24 21:05:00,
2013-06-24 17:10:00,69.1,65.7,29.55,South,188,1.0,2.0,89,0.00,,,0.02,Wunderground v.1.15,2013-06-24 21:10:00,
2013-06-24 17:20:00,69.1,66.0,29.55,WSW,240,2.0,2.0,90,0.00,,,0.02,Wunderground v.1.15,2013-06-24 21:20:00,
2013-06-24 17:25:00,69.1,66.0,29.54,SW,234,2.0,2.0,90,0.00,,,0.02,Wunderground v.1.15,2013-06-24 21:25:00,
2013-06-24 17:35:00,69.3,66.2,29.54,South,182,2.0,3.0,90,0.00,,,0.02,Wunderground v.1.15,2013-06-24 21:35:00,
2013-06-24 17:40:00,69.6,66.2,29.54,South,175,2.0,3.0,89,0.00,,,0.02,Wunderground v.1.15,2013-06-24 21:40:00,
2013-06-24 17:45:00,69.8,66.4,29.54,SSW,197,2.0,3.0,89,0.00,,,0.02,Wunderground v.1.15,2013-06-24 21:45:00,
2013-06-24 17:50:00,70.0,66.9,29.54,SSE,165,2.0,2.0,90,0.00,,,0.02,Wunderground v.1.15,2013-06-24 21:50:00,
2013-06-24 18:00:00,70.4,67.0,29.54,South,191,3.0,3.0,89,0.00,,,0.02,Wunderground v.1.15,2013-06-24 22:00:00,
2013-06-24 18:10:00,71.0,66.9,29.54,South,186,2.0,2.0,87,0.00,,,0.02,Wunderground v.1.15,2013-06-24 22:10:00,
2013-06-24 18:15:00,71.4,67.3,29.54,SSW,194,2.0,5.0,87,0.00,,,0.02,Wunderground v.1.15,2013-06-24 22:15:00,
2013-06-24 18:20:00,71.9,67.8,29.53,South,182,2.0,3.0,87,0.00,,,0.02,Wunderground v.1.15,2013-06-24 22:20:00,
2013-06-24 18:30:00,72.7,68.3,29.53,South,185,2.0,2.0,86,0.00,,,0.02,Wunderground v.1.15,2013-06-24 22:30:00,
2013-06-24 18:40:00,72.6,68.2,29.53,SSW,196,1.0,1.0,86,0.00,,,0.02,Wunderground v.1.15,2013-06-24 22:40:00,
2013-06-24 18:45:00,72.6,68.2,29.54,SSW,201,1.0,1.0,86,0.00,,,0.02,Wunderground v.1.15,2013-06-24 22:45:00,
2013-06-24 18:50:00,72.5,68.4,29.54,SSE,159,0.0,2.0,87,0.00,,,0.02,Wunderground v.1.15,2013-06-24 22:50:00,
2013-06-24 19:00:00,72.2,68.1,29.54,SSE,148,0.0,0.0,87,0.00,,,0.02,Wunderground v.1.15,2013-06-24 23:00:00,
2013-06-24 19:10:00,72.1,68.3,29.53,South,184,1.0,4.0,88,0.00,,,0.02,Wunderground v.1.15,2013-06-24 23:10:00,
2013-06-24 19:15:00,72.0,68.2,29.54,South,189,2.0,4.0,88,0.00,,,0.02,Wunderground v.1.15,2013-06-24 23:15:00,
2013-06-24 19:20:00,72.0,68.6,29.54,SSW,213,3.0,3.0,89,0.00,,,0.02,Wunderground v.1.15,2013-06-24 23:20:00,
2013-06-24 19:25:00,71.9,68.2,29.54,SE,124,2.0,3.0,88,0.00,,,0.02,Wunderground v.1.15,2013-06-24 23:25:00,
2013-06-24 19:35:00,72.0,68.6,29.54,ESE,122,1.0,1.0,89,0.00,,,0.02,Wunderground v.1.15,2013-06-24 23:35:00,
2013-06-24 19:45:00,71.5,67.8,29.54,South,180,2.0,2.0,88,0.00,,,0.02,Wunderground v.1.15,2013-06-24 23:45:00,
2013-06-24 19:50:00,71.2,67.8,29.55,North,5,1.0,1.0,89,0.00,,,0.02,Wunderground v.1.15,2013-06-24 23:50:00,
2013-06-24 20:00:00,70.5,67.4,29.56,ESE,103,0.0,1.0,90,0.00,,,0.02,Wunderground v.1.15,2013-06-25 00:00:00,
2013-06-24 20:05:00,70.1,67.0,29.56,East,85,1.0,1.0,90,0.00,,,0.02,Wunderground v.1.15,2013-06-25 00:05:00,
2013-06-24 20:10:00,69.7,67.0,29.56,East,84,0.0,0.0,91,0.00,,,0.02,Wunderground v.1.15,2013-06-25 00:10:00,
2013-06-24 20:20:00,69.4,67.0,29.56,East,84,0.0,0.0,92,0.00,,,0.02,Wunderground v.1.15,2013-06-25 00:20:00,
2013-06-24 20:30:00,69.1,66.7,29.56,East,84,0.0,0.0,92,0.00,,,0.02,Wunderground v.1.15,2013-06-25 00:30:00,
2013-06-24 20:40:00,68.8,66.7,29.57,NNE,20,0.0,5.0,93,0.00,,,0.02,Wunderground v.1.15,2013-06-25 00:40:00,
2013-06-24 20:50:00,68.3,66.5,29.59,NNE,26,3.0,3.0,94,0.00,,,0.02,Wunderground v.1.15,2013-06-25 00:50:00,
2013-06-24 21:00:00,69.2,65.2,29.59,North,5,4.0,4.0,87,0.00,,,0.02,Wunderground v.1.15,2013-06-25 01:00:00,
2013-06-24 21:15:00,68.4,65.0,29.58,NNW,328,2.0,3.0,89,0.10,,,0.07,Wunderground v.1.15,2013-06-25 01:15:00,
2013-06-24 21:20:00,67.6,64.6,29.58,NE,39,1.0,1.0,90,0.05,,,0.07,Wunderground v.1.15,2013-06-25 01:20:00,
2013-06-24 21:30:00,66.8,64.1,29.58,NE,39,0.0,0.0,91,0.00,,,0.07,Wunderground v.1.15,2013-06-25 01:30:00,
2013-06-24 21:40:00,66.3,64.2,29.59,WSW,245,1.0,1.0,93,0.00,,,0.07,Wunderground v.1.15,2013-06-25 01:40:00,
2013-06-24 21:50:00,65.9,64.1,29.60,WSW,254,1.0,5.0,94,0.00,,,0.07,Wunderground v.1.15,2013-06-25 01:50:00,
2013-06-24 21:55:00,65.8,64.0,29.60,SW,235,2.0,5.0,94,0.00,,,0.07,Wunderground v.1.15,2013-06-25 01:55:00,
2013-06-24 22:10:00,67.0,63.6,29.61,WNW,286,5.0,7.0,89,0.00,,,0.08,Wunderground v.1.15,2013-06-25 02:10:00,
2013-06-24 22:25:00,66.7,63.0,29.59,West,273,5.0,6.0,88,0.00,,,0.08,Wunderground v.1.15,2013-06-25 02:25:00,
2013-06-24 22:30:00,66.8,62.1,29.59,WNW,298,5.0,6.0,85,0.00,,,0.09,Wunderground v.1.15,2013-06-25 02:30:00,
2013-06-24 22:35:00,66.9,62.6,29.59,WNW,286,5.0,6.0,86,0.00,,,0.09,Wunderground v.1.15,2013-06-25 02:35:00,
2013-06-24 22:40:00,66.7,62.0,29.59,West,279,4.0,7.0,85,0.00,,,0.09,Wunderground v.1.15,2013-06-25 02:40:00,
2013-06-24 22:50:00,66.6,61.9,29.59,West,280,7.0,7.0,85,0.18,,,0.12,Wunderground v.1.15,2013-06-25 02:50:00,
2013-06-24 23:00:00,65.9,62.2,29.60,West,275,7.0,11.0,88,0.21,,,0.16,Wunderground v.1.15,2013-06-25 03:00:00,
2013-06-24 23:30:00,64.4,62.3,29.58,South,182,1.0,1.0,93,0.06,,,0.23,Wunderground v.1.15,2013-06-25 03:30:00,
2013-06-24 23:40:00,64.0,62.2,29.57,South,169,0.0,0.0,94,0.05,,,0.24,Wunderground v.1.15,2013-06-25 03:40:00,
2013-06-24 23:50:00,63.8,62.0,29.56,South,186,1.0,1.0,94,0.05,,,0.25,Wunderground v.1.15,2013-06-25 03:50:00,